Time;durP1;ratioP1;P1;durP2;ratioP2;P2;SDS_P1;SDS_P2;PMS_P1;PMS_P2;Temp;Humidity;BMP_temperature;BMP_pressure;BME280_temperature;BME280_humidity;BME280_pressure;Samples;Min_cycle;Max_cycle;Signal;HPM_P1;HPM_P2
2022/07/06 00:01:37;;;;;;;1.67;1.58;;;19.00;75.80;;;;;;5070319;28;20031;-70
2022/07/06 00:04:03;;;;;;;2.00;1.80;;;18.90;75.80;;;;;;5072751;28;20115;-72
2022/07/06 00:06:29;;;;;;;2.10;1.65;;;18.90;75.90;;;;;;5074378;28;20036;-72
2022/07/06 00:08:55;;;;;;;2.75;1.33;;;18.90;76.00;;;;;;5074354;28;20453;-72
2022/07/06 00:11:21;;;;;;;2.47;1.67;;;18.90;76.20;;;;;;5056000;28;20036;-72
2022/07/06 00:13:47;;;;;;;3.90;1.58;;;18.90;76.30;;;;;;5072164;28;20052;-72
2022/07/06 00:16:12;;;;;;;2.97;1.55;;;18.80;76.30;;;;;;5060673;28;20063;-72
2022/07/06 00:18:38;;;;;;;4.38;1.73;;;18.80;76.70;;;;;;5073770;28;20028;-72
2022/07/06 00:21:04;;;;;;;1.77;1.65;;;18.70;76.80;;;;;;5074454;27;20024;-72
2022/07/06 00:23:29;;;;;;;1.40;1.30;;;18.70;77.00;;;;;;5074117;28;20041;-72
2022/07/06 00:25:55;;;;;;;1.90;1.52;;;18.70;77.30;;;;;;5074317;28;20036;-72
2022/07/06 00:28:21;;;;;;;2.13;1.55;;;18.60;77.60;;;;;;5073699;28;20029;-72
2022/07/06 00:30:46;;;;;;;3.40;1.70;;;18.60;77.80;;;;;;5070234;28;20032;-72
2022/07/06 00:33:12;;;;;;;3.42;1.90;;;18.50;78.10;;;;;;5057389;28;20058;-72
2022/07/06 00:35:37;;;;;;;3.67;2.00;;;18.50;78.60;;;;;;5074646;28;20462;-72
2022/07/06 00:38:03;;;;;;;1.70;1.60;;;18.50;78.70;;;;;;5073084;28;20077;-72
2022/07/06 00:40:32;;;;;;;2.13;1.80;;;18.40;78.90;;;;;;5074023;28;20025;-72
2022/07/06 00:42:57;;;;;;;2.95;1.65;;;18.40;79.10;;;;;;5073649;28;20082;-72
2022/07/06 00:45:23;;;;;;;1.92;1.65;;;18.30;79.10;;;;;;5073420;28;20032;-72
2022/07/06 00:47:49;;;;;;;1.55;1.45;;;18.30;79.90;;;;;;5068874;28;20043;-72
2022/07/06 00:50:20;;;;;;;2.60;1.40;;;18.30;79.60;;;;;;5055962;28;20029;-72
2022/07/06 00:52:52;;;;;;;3.08;1.70;;;18.20;79.70;;;;;;5073728;28;20028;-72
2022/07/06 00:55:20;;;;;;;3.38;1.45;;;18.20;79.90;;;;;;5073822;28;20074;-72
2022/07/06 00:57:46;;;;;;;4.05;1.55;;;18.20;80.10;;;;;;5074532;28;20024;-72
2022/07/06 01:00:14;;;;;;;2.25;1.80;;;18.20;80.30;;;;;;5069440;28;20030;-72
2022/07/06 01:02:40;;;;;;;3.45;1.92;;;18.10;80.50;;;;;;5071996;28;20032;-72
2022/07/06 01:05:08;;;;;;;3.28;1.85;;;18.00;80.70;;;;;;5065852;28;20036;-72
2022/07/06 01:07:35;;;;;;;1.92;1.50;;;18.00;80.70;;;;;;5061398;28;20090;-72
2022/07/06 01:10:05;;;;;;;2.83;2.00;;;18.00;80.90;;;;;;5073382;28;20103;-72
2022/07/06 01:12:31;;;;;;;2.80;1.83;;;17.90;81.50;;;;;;5073704;28;20028;-72
2022/07/06 01:14:56;;;;;;;4.15;2.00;;;17.90;80.70;;;;;;5073319;28;20036;-72
2022/07/06 01:17:23;;;;;;;2.25;1.60;;;18.00;80.90;;;;;;5072885;28;20198;-73
2022/07/06 01:19:48;;;;;;;3.88;1.92;;;17.90;80.60;;;;;;5073103;28;20465;-72
2022/07/06 01:22:14;;;;;;;3.85;2.05;;;17.90;80.50;;;;;;5058538;28;20056;-72
2022/07/06 01:24:40;;;;;;;5.43;2.95;;;17.90;80.20;;;;;;5073237;28;20455;-72
2022/07/06 01:27:06;;;;;;;7.25;3.78;;;17.90;80.50;;;;;;5072239;28;20036;-72
2022/07/06 01:29:32;;;;;;;4.18;2.95;;;17.90;80.80;;;;;;5069921;28;20041;-72
2022/07/06 01:31:58;;;;;;;6.50;2.97;;;17.90;80.70;;;;;;5069916;28;20380;-72
2022/07/06 01:34:24;;;;;;;4.72;2.15;;;17.80;80.60;;;;;;5070799;28;20035;-72
2022/07/06 01:36:50;;;;;;;2.53;1.90;;;17.80;80.50;;;;;;5072585;28;20033;-72
2022/07/06 01:39:15;;;;;;;2.90;1.92;;;17.80;80.70;;;;;;5056776;28;20037;-72
2022/07/06 01:41:41;;;;;;;2.40;1.40;;;17.80;80.60;;;;;;5069836;28;20115;-72
2022/07/06 01:44:07;;;;;;;4.63;1.88;;;17.80;80.90;;;;;;5071664;28;20028;-72
2022/07/06 01:46:33;;;;;;;5.72;1.83;;;17.80;80.90;;;;;;5071461;28;20021;-72
2022/07/06 01:48:59;;;;;;;3.65;1.60;;;17.70;80.90;;;;;;5072555;28;20066;-72
2022/07/06 01:51:24;;;;;;;4.32;1.70;;;17.70;80.80;;;;;;5071580;28;20024;-73
2022/07/06 01:53:51;;;;;;;4.22;1.98;;;17.70;80.90;;;;;;5070976;28;20039;-72
2022/07/06 01:56:18;;;;;;;3.55;1.70;;;17.60;81.00;;;;;;5062967;28;20059;-72
2022/07/06 01:58:45;;;;;;;3.72;1.80;;;17.60;81.50;;;;;;5072443;28;20389;-72
2022/07/06 02:01:14;;;;;;;2.65;2.05;;;17.60;81.20;;;;;;5068604;28;20036;-73
2022/07/06 02:03:40;;;;;;;2.45;1.90;;;17.60;81.40;;;;;;5056719;28;20027;-72
2022/07/06 02:06:06;;;;;;;4.13;2.08;;;17.50;81.50;;;;;;5071762;28;20124;-72
2022/07/06 02:08:34;;;;;;;3.53;1.73;;;17.40;81.60;;;;;;5072261;28;20420;-72
2022/07/06 02:11:00;;;;;;;1.70;1.60;;;17.40;81.70;;;;;;5072219;28;20350;-72
2022/07/06 02:13:25;;;;;;;7.72;1.98;;;17.40;81.90;;;;;;5056252;28;20047;-72
2022/07/06 02:15:51;;;;;;;5.22;1.52;;;17.30;82.00;;;;;;5071962;28;20116;-72
2022/07/06 02:18:17;;;;;;;2.15;1.50;;;17.30;82.20;;;;;;5071842;28;20028;-73
2022/07/06 02:20:43;;;;;;;7.93;1.98;;;17.20;82.00;;;;;;5071794;28;20028;-72
2022/07/06 02:23:08;;;;;;;2.78;1.60;;;17.20;82.70;;;;;;5055091;27;20045;-72
2022/07/06 02:25:34;;;;;;;4.47;1.90;;;17.20;82.70;;;;;;5052410;28;20477;-72
2022/07/06 02:28:00;;;;;;;4.88;1.80;;;17.10;82.90;;;;;;5044267;28;20021;-72
2022/07/06 02:30:26;;;;;;;3.10;1.40;;;17.10;83.20;;;;;;5041516;28;20060;-72
2022/07/06 02:32:51;;;;;;;5.13;1.90;;;17.00;83.30;;;;;;5052512;28;20025;-72
2022/07/06 02:35:17;;;;;;;3.00;1.67;;;17.00;83.70;;;;;;5048123;28;20124;-72
2022/07/06 02:37:43;;;;;;;8.32;1.80;;;16.90;83.40;;;;;;5052241;28;20038;-72
2022/07/06 02:40:09;;;;;;;3.92;1.83;;;16.90;84.20;;;;;;5051016;28;20032;-72
2022/07/06 02:42:35;;;;;;;2.38;1.67;;;16.80;84.70;;;;;;5035401;28;20051;-71
2022/07/06 02:45:01;;;;;;;5.65;1.90;;;16.80;84.70;;;;;;5051641;28;20466;-70
2022/07/06 02:47:27;;;;;;;5.70;1.83;;;16.80;84.80;;;;;;5034025;28;20090;-70
2022/07/06 02:49:53;;;;;;;3.38;1.65;;;16.70;85.10;;;;;;5051505;28;20025;-71
2022/07/06 02:52:19;;;;;;;2.92;1.88;;;16.70;85.20;;;;;;5050882;28;20040;-71
2022/07/06 02:54:45;;;;;;;3.85;1.83;;;16.70;85.50;;;;;;5051551;28;20068;-71
2022/07/06 02:57:11;;;;;;;3.42;1.92;;;16.60;86.00;;;;;;5049397;28;20037;-70
2022/07/06 02:59:37;;;;;;;3.50;2.22;;;16.60;86.10;;;;;;5051301;28;20025;-70
2022/07/06 03:02:05;;;;;;;3.67;1.90;;;16.60;86.30;;;;;;5035150;28;20025;-70
2022/07/06 03:04:31;;;;;;;5.72;1.80;;;16.50;86.50;;;;;;5041786;28;20029;-72
2022/07/06 03:06:57;;;;;;;4.22;1.98;;;16.50;87.00;;;;;;5051240;28;20231;-71
2022/07/06 03:09:22;;;;;;;5.40;1.92;;;16.50;87.10;;;;;;5050775;28;20029;-71
2022/07/06 03:11:48;;;;;;;5.53;2.20;;;16.50;87.40;;;;;;5051045;28;20100;-72
2022/07/06 03:14:13;;;;;;;2.35;1.70;;;16.40;87.60;;;;;;5032717;28;20033;-71
2022/07/06 03:16:39;;;;;;;1.65;1.55;;;16.50;87.80;;;;;;5034086;28;20053;-71
2022/07/06 03:19:05;;;;;;;4.10;1.60;;;16.40;88.00;;;;;;5046439;28;20048;-71
2022/07/06 03:21:31;;;;;;;4.35;2.00;;;16.40;88.10;;;;;;5036872;28;20171;-71
2022/07/06 03:23:57;;;;;;;5.82;2.70;;;16.40;88.40;;;;;;5065400;28;20037;-71
2022/07/06 03:26:22;;;;;;;2.83;2.00;;;16.40;88.60;;;;;;5055377;28;20035;-71
2022/07/06 03:28:48;;;;;;;5.25;1.90;;;16.30;88.70;;;;;;5060208;28;20099;-70
2022/07/06 03:31:14;;;;;;;4.35;1.95;;;16.30;89.00;;;;;;5050810;28;20020;-72
2022/07/06 03:33:39;;;;;;;3.72;2.22;;;16.30;89.90;;;;;;5064362;28;20095;-71
2022/07/06 03:36:05;;;;;;;3.83;2.13;;;16.30;89.70;;;;;;5053593;28;20029;-71
2022/07/06 03:38:31;;;;;;;6.22;2.15;;;16.30;89.90;;;;;;5049354;28;20037;-71
2022/07/06 03:40:56;;;;;;;2.80;1.98;;;16.20;90.10;;;;;;5051175;28;20025;-71
2022/07/06 03:43:22;;;;;;;5.25;1.83;;;16.20;90.20;;;;;;5058242;28;20021;-71
2022/07/06 03:45:48;;;;;;;3.72;2.08;;;16.20;90.40;;;;;;5068409;28;20028;-71
2022/07/06 03:48:13;;;;;;;5.75;2.20;;;16.20;90.30;;;;;;5055447;28;20031;-71
2022/07/06 03:50:39;;;;;;;2.00;1.80;;;16.20;90.50;;;;;;5051166;28;20032;-71
2022/07/06 03:53:05;;;;;;;9.95;2.53;;;16.20;90.40;;;;;;5061431;28;20040;-71
2022/07/06 03:55:30;;;;;;;4.22;2.25;;;16.20;90.50;;;;;;5049630;28;20040;-70
2022/07/06 03:57:56;;;;;;;2.45;2.13;;;16.20;90.60;;;;;;5050782;28;20479;-71
2022/07/06 04:00:22;;;;;;;4.68;2.35;;;16.20;90.60;;;;;;5050894;28;20385;-70
2022/07/06 04:02:47;;;;;;;4.90;2.80;;;16.30;90.70;;;;;;5052712;28;20061;-71
2022/07/06 04:05:13;;;;;;;5.85;2.00;;;16.30;90.80;;;;;;5050932;28;20116;-70
2022/07/06 04:07:38;;;;;;;3.83;1.88;;;16.30;91.00;;;;;;5043185;28;20462;-70
2022/07/06 04:10:05;;;;;;;4.18;2.10;;;16.20;91.10;;;;;;5049793;28;20029;-71
2022/07/06 04:12:31;;;;;;;5.95;2.38;;;16.30;91.40;;;;;;5045448;28;20653;-71
2022/07/06 04:14:57;;;;;;;2.70;2.30;;;16.30;91.20;;;;;;5070777;28;20036;-71
2022/07/06 04:20:09;;;;;;;6.53;2.33;;;16.40;91.30;;;;;;5071586;28;20031;-71
2022/07/06 04:22:38;;;;;;;2.40;1.92;;;16.40;91.50;;;;;;5065585;28;20048;-71
2022/07/06 04:25:04;;;;;;;4.50;2.55;;;16.40;91.60;;;;;;5086007;28;20032;-72
2022/07/06 04:27:30;;;;;;;4.63;2.85;;;16.40;91.70;;;;;;5084857;28;20756;-71
2022/07/06 04:29:55;;;;;;;7.38;2.47;;;16.40;91.80;;;;;;5065353;28;20114;-71
2022/07/06 04:32:21;;;;;;;5.93;2.60;;;16.40;92.10;;;;;;5082189;28;20029;-71
2022/07/06 04:34:46;;;;;;;11.27;2.80;;;16.40;92.20;;;;;;5079951;28;20052;-71
2022/07/06 04:37:12;;;;;;;6.22;2.38;;;16.50;92.30;;;;;;5093789;28;20043;-71
2022/07/06 04:39:38;;;;;;;7.00;2.47;;;16.60;92.30;;;;;;5076439;28;20032;-71
2022/07/06 04:42:03;;;;;;;3.58;2.33;;;16.60;92.40;;;;;;5094526;28;20472;-70
2022/07/06 04:44:29;;;;;;;5.78;2.90;;;16.60;92.40;;;;;;5080166;28;20029;-71
2022/07/06 04:46:54;;;;;;;4.82;2.80;;;16.60;92.60;;;;;;5075498;28;20369;-69
2022/07/06 04:49:20;;;;;;;3.65;2.45;;;16.60;92.80;;;;;;5073748;28;20025;-71
2022/07/06 04:51:46;;;;;;;7.57;2.50;;;16.70;92.80;;;;;;5074378;28;20107;-71
2022/07/06 04:54:11;;;;;;;6.40;2.85;;;16.80;92.90;;;;;;5073953;28;20451;-72
2022/07/06 04:56:37;;;;;;;4.10;2.65;;;16.80;92.90;;;;;;5071605;28;20021;-71
2022/07/06 04:59:02;;;;;;;6.18;2.92;;;16.80;93.20;;;;;;5088085;28;20063;-71
2022/07/06 05:01:28;;;;;;;6.50;2.70;;;16.90;93.00;;;;;;5068145;28;20031;-71
2022/07/06 05:03:54;;;;;;;5.45;2.95;;;16.90;92.90;;;;;;5074323;28;20054;-72
2022/07/06 05:06:20;;;;;;;5.03;2.80;;;17.00;93.00;;;;;;5073489;28;20036;-72
2022/07/06 05:08:46;;;;;;;3.97;2.35;;;16.90;93.10;;;;;;5074379;28;20044;-71
2022/07/06 05:11:11;;;;;;;4.70;2.45;;;16.90;93.50;;;;;;5074198;28;20021;-71
2022/07/06 05:13:37;;;;;;;5.75;3.50;;;16.90;93.60;;;;;;5073097;28;20048;-71
2022/07/06 05:16:03;;;;;;;3.47;2.83;;;17.00;93.40;;;;;;5074062;28;20446;-71
2022/07/06 05:18:30;;;;;;;5.22;3.33;;;17.00;93.50;;;;;;5070516;28;20113;-71
2022/07/06 05:20:55;;;;;;;5.07;2.50;;;17.00;93.50;;;;;;5078644;28;20020;-71
2022/07/06 05:23:21;;;;;;;6.18;2.60;;;17.00;93.70;;;;;;5062639;28;20386;-72
2022/07/06 05:25:46;;;;;;;6.70;2.67;;;17.10;93.80;;;;;;5058037;28;20060;-73
2022/07/06 05:28:12;;;;;;;6.10;2.58;;;17.10;93.80;;;;;;5061317;28;20079;-72
2022/07/06 05:30:38;;;;;;;6.43;2.78;;;17.20;93.80;;;;;;5069420;28;20140;-71
2022/07/06 05:33:03;;;;;;;4.72;2.60;;;17.30;93.80;;;;;;5064518;28;20064;-71
2022/07/06 05:35:29;;;;;;;9.70;3.20;;;17.40;93.80;;;;;;5061142;28;20059;-70
2022/07/06 05:37:55;;;;;;;3.85;2.67;;;17.50;93.20;;;;;;5065185;28;20045;-76
2022/07/06 05:40:20;;;;;;;5.85;3.25;;;17.60;93.00;;;;;;5068498;28;20071;-75
2022/07/06 05:42:46;;;;;;;6.80;3.17;;;17.80;93.00;;;;;;5052661;28;20056;-73
2022/07/06 05:45:12;;;;;;;6.32;3.00;;;17.90;92.30;;;;;;5041574;28;20049;-74
2022/07/06 05:50:22;;;;;;;3.67;2.45;;;17.90;92.50;;;;;;5054933;28;20160;-74
2022/07/06 05:52:59;;;;;;;6.15;2.90;;;17.90;92.30;;;;;;5048292;28;20561;-73
2022/07/06 05:56:15;;;;;;;3.20;2.35;;;18.10;91.60;;;;;;5061127;28;20079;-73
2022/07/06 06:50:23;;;;;;;6.65;3.05;;;19.20;90.60;;;;;;4927309;28;20040;-72
2022/07/06 06:52:49;;;;;;;3.38;2.53;;;19.10;90.20;;;;;;4941230;29;20035;-74
2022/07/06 06:55:15;;;;;;;7.97;2.70;;;19.20;90.30;;;;;;4949250;29;20071;-73
2022/07/06 06:57:41;;;;;;;12.10;2.78;;;19.20;90.50;;;;;;4931331;29;20068;-73
2022/07/06 07:00:07;;;;;;;5.65;2.60;;;19.30;90.40;;;;;;4933321;29;20180;-72
2022/07/06 07:02:33;;;;;;;4.78;2.70;;;19.30;90.20;;;;;;4939068;29;20030;-72
2022/07/06 07:04:59;;;;;;;6.05;2.65;;;19.40;90.10;;;;;;4935512;29;20027;-73
2022/07/06 07:07:24;;;;;;;9.90;2.47;;;19.50;90.00;;;;;;4934422;29;20110;-72
2022/07/06 07:09:50;;;;;;;4.47;2.50;;;19.50;89.80;;;;;;4940333;29;20451;-72
2022/07/06 07:12:16;;;;;;;4.63;2.38;;;19.50;89.90;;;;;;4939451;29;20116;-73
2022/07/06 07:14:43;;;;;;;10.00;3.20;;;19.60;90.20;;;;;;4928305;28;20055;-73
2022/07/06 07:17:09;;;;;;;7.65;2.00;;;19.60;89.70;;;;;;4932525;28;20064;-74
2022/07/06 07:19:34;;;;;;;4.00;2.63;;;19.60;89.80;;;;;;4933470;28;20045;-73
2022/07/06 07:22:00;;;;;;;3.72;2.25;;;19.70;89.10;;;;;;4942137;28;20114;-73
2022/07/06 07:24:26;;;;;;;3.33;2.25;;;19.80;89.10;;;;;;4934976;29;20039;-72
2022/07/06 07:26:51;;;;;;;4.70;2.05;;;19.90;88.50;;;;;;4937352;28;20055;-74
2022/07/06 07:29:17;;;;;;;4.90;2.50;;;19.90;88.40;;;;;;4932943;28;20035;-75
2022/07/06 07:31:42;;;;;;;6.05;2.50;;;19.90;87.80;;;;;;4938985;29;20038;-74
2022/07/06 07:34:08;;;;;;;5.22;2.13;;;20.00;87.30;;;;;;4938466;29;20388;-73
2022/07/06 07:36:34;;;;;;;4.45;2.08;;;19.90;87.80;;;;;;4940944;29;20086;-73
2022/07/06 07:38:59;;;;;;;8.90;2.50;;;19.90;87.40;;;;;;4930474;29;20473;-75
2022/07/06 07:41:25;;;;;;;6.53;2.30;;;19.90;89.30;;;;;;4931314;29;20468;-73
2022/07/06 07:43:51;;;;;;;6.82;2.33;;;20.00;87.30;;;;;;4938720;29;20031;-72
2022/07/06 07:46:16;;;;;;;8.65;2.13;;;20.10;86.70;;;;;;4934190;29;20043;-73
2022/07/06 07:48:42;;;;;;;5.13;2.40;;;20.20;86.20;;;;;;4933368;29;20027;-72
2022/07/06 07:51:07;;;;;;;6.38;2.45;;;20.30;85.90;;;;;;4935750;29;20047;-72
2022/07/06 07:53:34;;;;;;;6.68;2.30;;;20.30;86.40;;;;;;4942156;29;20028;-73
2022/07/06 07:56:00;;;;;;;7.30;2.80;;;20.30;86.10;;;;;;4941377;29;20027;-73
2022/07/06 07:58:26;;;;;;;7.68;2.35;;;20.20;85.80;;;;;;4942176;29;20114;-74
2022/07/06 08:00:52;;;;;;;5.80;2.70;;;20.20;87.20;;;;;;4945124;29;20046;-73
2022/07/06 08:03:18;;;;;;;3.97;2.40;;;20.30;87.10;;;;;;4939656;29;20031;-73
2022/07/06 08:05:44;;;;;;;5.90;2.72;;;20.40;87.30;;;;;;4940710;29;20175;-74
2022/07/06 08:08:09;;;;;;;5.82;2.55;;;20.50;86.10;;;;;;4936967;29;20038;-73
2022/07/06 08:10:35;;;;;;;7.50;2.55;;;20.60;86.20;;;;;;4940042;29;20043;-74
2022/07/06 08:13:01;;;;;;;9.15;2.60;;;20.70;86.10;;;;;;4934246;29;20135;-73
2022/07/06 08:15:27;;;;;;;6.55;2.55;;;20.90;85.70;;;;;;4940473;29;20028;-73
2022/07/06 08:17:53;;;;;;;3.67;2.40;;;20.90;85.70;;;;;;4941750;29;20019;-75
2022/07/06 08:20:18;;;;;;;8.38;2.35;;;21.00;85.50;;;;;;4941546;29;20800;-75
2022/07/06 08:22:44;;;;;;;6.78;2.80;;;21.20;85.80;;;;;;4943585;29;20070;-73
2022/07/06 08:25:10;;;;;;;5.63;2.50;;;21.30;84.70;;;;;;4940476;29;20036;-76
2022/07/06 08:27:36;;;;;;;3.67;2.33;;;21.40;85.00;;;;;;4938479;29;20452;-75
2022/07/06 08:30:03;;;;;;;11.32;2.97;;;21.50;84.90;;;;;;4942144;29;20050;-77
2022/07/06 08:32:29;;;;;;;8.60;3.15;;;21.50;82.80;;;;;;4938168;29;20035;-76
2022/07/06 08:34:54;;;;;;;6.38;3.33;;;21.30;82.70;;;;;;4935858;29;20027;-76
2022/07/06 08:37:20;;;;;;;5.13;2.63;;;21.30;82.60;;;;;;4936940;29;20444;-78
2022/07/06 08:39:46;;;;;;;7.03;2.80;;;21.20;82.30;;;;;;4933293;29;20166;-77
2022/07/06 08:42:13;;;;;;;8.18;2.80;;;21.10;83.60;;;;;;4930697;29;20040;-78
2022/07/06 08:44:40;;;;;;;10.30;3.72;;;21.10;84.50;;;;;;4931973;29;20027;-79
2022/07/06 08:47:07;;;;;;;7.32;2.92;;;21.20;83.70;;;;;;4932766;29;20040;-79
2022/07/06 08:49:34;;;;;;;9.18;3.13;;;21.30;82.50;;;;;;4931521;29;20032;-78
2022/07/06 08:52:02;;;;;;;7.63;3.00;;;21.40;83.20;;;;;;4930973;29;20075;-80
2022/07/06 08:54:28;;;;;;;6.07;2.90;;;21.50;83.00;;;;;;4930968;29;20074;-81
2022/07/06 08:56:54;;;;;;;4.78;2.55;;;21.50;83.50;;;;;;4929957;29;20060;-77
2022/07/06 08:59:19;;;;;;;4.55;2.28;;;21.70;82.40;;;;;;4932191;29;20133;-78
2022/07/06 09:01:47;;;;;;;8.85;2.30;;;21.80;83.30;;;;;;4933612;29;20028;-78
2022/07/06 09:04:15;;;;;;;4.82;2.97;;;21.90;83.00;;;;;;4928892;29;20040;-78
2022/07/06 09:06:44;;;;;;;8.48;2.95;;;22.00;81.90;;;;;;4928453;29;20055;-78
2022/07/06 09:09:11;;;;;;;5.25;2.53;;;22.00;81.30;;;;;;4929987;29;20083;-78
2022/07/06 09:11:37;;;;;;;3.58;2.40;;;22.00;81.90;;;;;;4933600;29;20075;-78
2022/07/06 09:14:03;;;;;;;9.63;3.22;;;22.20;82.10;;;;;;4931518;29;20039;-83
2022/07/06 09:16:30;;;;;;;6.72;2.40;;;22.40;82.40;;;;;;4931569;29;20389;-80
2022/07/06 09:18:56;;;;;;;3.60;2.00;;;22.50;81.60;;;;;;4932166;29;20043;-78
2022/07/06 09:21:30;;;;;;;4.65;2.63;;;22.60;81.00;;;;;;4932676;29;20055;-79
2022/07/06 09:23:57;;;;;;;3.42;2.40;;;22.60;80.80;;;;;;4929511;29;20044;-76
2022/07/06 09:26:23;;;;;;;17.27;2.70;;;22.60;80.40;;;;;;4936886;29;20036;-71
2022/07/06 09:28:49;;;;;;;8.25;2.72;;;22.70;80.80;;;;;;4937462;29;20528;-70
2022/07/06 09:31:15;;;;;;;5.85;3.08;;;22.50;80.30;;;;;;4935813;29;20062;-71
2022/07/06 09:33:54;;;;;;;18.23;3.17;;;22.60;79.50;;;;;;4937809;29;20067;-70
2022/07/06 09:36:49;;;;;;;5.60;2.95;;;22.60;80.30;;;;;;4936912;29;20027;-70
2022/07/06 09:39:19;;;;;;;8.25;2.50;;;22.80;79.60;;;;;;4939299;29;20168;-69
2022/07/06 09:41:50;;;;;;;6.13;2.67;;;22.90;78.80;;;;;;4933122;29;20031;-69
2022/07/06 09:44:21;;;;;;;7.43;2.53;;;22.90;78.70;;;;;;4941887;29;20050;-69
2022/07/06 09:46:48;;;;;;;6.53;2.30;;;23.00;77.80;;;;;;4937695;29;20135;-70
2022/07/06 09:49:18;;;;;;;4.75;2.60;;;23.20;78.10;;;;;;4942989;29;20519;-69
2022/07/06 09:51:45;;;;;;;;;;;23.30;77.20;;;;;;4937650;29;20516;-70
2022/07/06 09:54:11;;;;;;;8.57;2.45;;;23.40;76.20;;;;;;4933198;29;20386;-70
2022/07/06 09:56:40;;;;;;;2.75;2.03;;;23.40;76.60;;;;;;4935097;29;20027;-69
2022/07/06 09:59:14;;;;;;;6.05;2.38;;;23.40;77.70;;;;;;4939559;29;20520;-71
2022/07/06 10:01:40;;;;;;;6.75;2.00;;;23.50;77.80;;;;;;4934707;29;20031;-69
2022/07/06 10:04:12;;;;;;;5.22;2.13;;;23.60;77.10;;;;;;4934913;29;20066;-69
2022/07/06 10:06:38;;;;;;;6.10;1.88;;;23.70;76.90;;;;;;4933191;29;20542;-69
2022/07/06 10:09:08;;;;;;;6.43;2.40;;;23.90;77.00;;;;;;4939735;29;20027;-68
2022/07/06 10:11:38;;;;;;;13.88;2.97;;;24.10;75.50;;;;;;4938545;29;20028;-69
2022/07/06 10:14:06;;;;;;;6.25;2.28;;;24.20;75.50;;;;;;4936962;28;20110;-69
2022/07/06 10:16:37;;;;;;;7.75;2.47;;;24.10;74.50;;;;;;4939189;29;20111;-70
2022/07/06 10:19:06;;;;;;;6.45;2.22;;;23.80;74.70;;;;;;4940668;29;20019;-69
2022/07/06 10:21:33;;;;;;;10.18;2.85;;;23.60;75.10;;;;;;4941720;29;20517;-70
2022/07/06 10:24:00;;;;;;;5.85;2.63;;;23.60;75.60;;;;;;4940776;29;20047;-70
2022/07/06 10:26:26;;;;;;;5.10;2.30;;;23.80;75.40;;;;;;4934547;29;20036;-70
2022/07/06 10:28:52;;;;;;;6.47;2.30;;;24.00;74.80;;;;;;4935735;29;20031;-70
2022/07/06 10:31:19;;;;;;;5.72;2.30;;;24.10;74.30;;;;;;4938367;29;20472;-70
2022/07/06 10:33:45;;;;;;;4.60;2.28;;;24.10;73.90;;;;;;4934845;29;20095;-70
2022/07/06 10:36:12;;;;;;;7.45;2.08;;;24.00;73.30;;;;;;4935094;29;20171;-70
2022/07/06 10:38:38;;;;;;;7.88;2.95;;;24.00;73.90;;;;;;4939202;29;20032;-70
2022/07/06 10:41:06;;;;;;;4.40;2.05;;;23.80;74.20;;;;;;4939398;29;20035;-69
2022/07/06 10:43:48;;;;;;;4.43;2.20;;;23.50;75.20;;;;;;4938576;29;20035;-70
2022/07/06 10:46:20;;;;;;;5.38;2.47;;;23.30;76.30;;;;;;4936590;29;20028;-70
2022/07/06 10:48:47;;;;;;;4.43;2.20;;;23.50;76.70;;;;;;4937477;29;20036;-70
2022/07/06 10:51:26;;;;;;;6.43;2.03;;;23.60;76.20;;;;;;4934106;29;20055;-70
2022/07/06 10:54:03;;;;;;;6.40;2.33;;;23.60;75.70;;;;;;4911833;29;20358;-70
2022/07/06 10:56:35;;;;;;;7.82;2.28;;;23.30;74.60;;;;;;4934453;29;20503;-69
2022/07/06 10:59:21;;;;;;;16.98;3.90;;;23.10;76.00;;;;;;4935784;29;20489;-69
2022/07/06 11:02:19;;;;;;;5.75;2.00;;;23.10;75.90;;;;;;4936178;29;20027;-70
2022/07/06 11:04:47;;;;;;;4.60;2.20;;;23.20;76.10;;;;;;4924458;29;20090;-70
2022/07/06 11:07:15;;;;;;;8.13;3.15;;;23.50;75.60;;;;;;4929796;29;20039;-70
2022/07/06 11:09:53;;;;;;;7.07;2.47;;;23.70;74.60;;;;;;4935967;29;20032;-69
2022/07/06 11:12:20;;;;;;;4.97;2.22;;;23.70;74.90;;;;;;4936470;29;20030;-71
2022/07/06 11:14:48;;;;;;;6.32;2.67;;;23.70;74.80;;;;;;4941375;29;20031;-69
2022/07/06 11:17:14;;;;;;;17.90;3.00;;;23.90;74.70;;;;;;4936426;29;20126;-70
2022/07/06 11:19:57;;;;;;;7.10;2.65;;;23.90;74.80;;;;;;4934955;29;20040;-70
2022/07/06 11:22:26;;;;;;;5.03;2.40;;;24.10;74.10;;;;;;4934822;29;20030;-70
2022/07/06 11:24:52;;;;;;;11.63;2.53;;;24.20;74.30;;;;;;4935322;29;20039;-70
2022/07/06 11:27:19;;;;;;;4.55;2.63;;;24.40;74.00;;;;;;4941127;29;20090;-70
2022/07/06 11:29:45;;;;;;;8.40;2.25;;;24.30;74.50;;;;;;4942546;29;20086;-70
2022/07/06 11:32:13;;;;;;;10.88;2.22;;;24.40;74.20;;;;;;4944606;29;20027;-70
2022/07/06 11:34:43;;;;;;;10.93;3.05;;;24.60;72.90;;;;;;4941525;29;20097;-69
2022/07/06 11:37:12;;;;;;;4.25;2.70;;;24.50;72.80;;;;;;4939254;29;20028;-70
2022/07/06 11:39:42;;;;;;;4.88;2.80;;;24.10;73.10;;;;;;4944673;29;20036;-69
2022/07/06 11:42:10;;;;;;;7.90;3.08;;;23.80;73.60;;;;;;4943274;29;20170;-69
2022/07/06 11:44:36;;;;;;;5.72;2.20;;;23.80;74.60;;;;;;4941431;29;20070;-70
2022/07/06 11:47:03;;;;;;;5.93;2.70;;;24.00;75.40;;;;;;4936029;29;20046;-69
2022/07/06 11:49:34;;;;;;;7.20;2.38;;;24.30;73.60;;;;;;4941526;29;20024;-70
2022/07/06 11:52:00;;;;;;;10.93;2.50;;;24.60;73.00;;;;;;4946340;28;20142;-70
2022/07/06 11:54:26;;;;;;;7.80;2.40;;;24.90;73.40;;;;;;4948004;29;20166;-70
2022/07/06 11:56:55;;;;;;;6.97;2.50;;;25.00;72.30;;;;;;4952558;29;20031;-69
2022/07/06 11:59:27;;;;;;;7.90;2.90;;;24.80;72.60;;;;;;4942623;29;20058;-70
2022/07/06 12:02:06;;;;;;;4.45;2.22;;;24.50;73.50;;;;;;4942304;29;20359;-70
2022/07/06 12:04:34;;;;;;;11.32;2.75;;;24.30;74.50;;;;;;4940332;29;20468;-70
2022/07/06 12:07:01;;;;;;;4.18;2.00;;;24.30;73.60;;;;;;4939372;29;20043;-69
2022/07/06 12:09:30;;;;;;;7.43;2.22;;;24.20;74.60;;;;;;4939653;29;20042;-72
2022/07/06 12:11:56;;;;;;;6.55;3.80;;;24.40;74.70;;;;;;4945703;28;20028;-70
2022/07/06 12:14:22;;;;;;;11.88;3.60;;;24.30;72.80;;;;;;4921432;29;20035;-70
2022/07/06 12:16:51;;;;;;;8.45;2.90;;;24.10;73.80;;;;;;4947984;29;20035;-70
2022/07/06 12:19:17;;;;;;;8.25;2.95;;;23.90;73.70;;;;;;4939462;29;20031;-72
2022/07/06 12:21:50;;;;;;;13.10;3.10;;;23.60;74.70;;;;;;4940935;29;20122;-69
2022/07/06 12:24:24;;;;;;;11.63;3.05;;;23.70;75.10;;;;;;4936552;29;20445;-70
2022/07/06 12:26:51;;;;;;;9.27;3.17;;;24.00;74.50;;;;;;4940573;29;20088;-70
2022/07/06 12:29:17;;;;;;;5.68;2.45;;;24.40;74.20;;;;;;4944731;28;20086;-70
2022/07/06 12:31:53;;;;;;;10.05;3.47;;;24.40;74.10;;;;;;4944476;28;20031;-70
2022/07/06 12:34:34;;;;;;;5.97;2.78;;;24.60;73.70;;;;;;4940547;29;20050;-70
2022/07/06 12:37:09;;;;;;;7.70;3.03;;;25.00;72.90;;;;;;4943709;28;20024;-70
2022/07/06 12:39:46;;;;;;;7.15;3.38;;;25.20;71.50;;;;;;4940119;29;20031;-69
2022/07/06 12:42:17;;;;;;;4.50;2.40;;;25.00;71.70;;;;;;4931914;29;20059;-69
2022/07/06 12:44:45;;;;;;;4.80;2.17;;;24.60;72.00;;;;;;4938526;29;20036;-70
2022/07/06 12:47:12;;;;;;;8.60;2.78;;;24.40;72.80;;;;;;4938626;29;20043;-69
2022/07/06 12:49:38;;;;;;;6.90;2.70;;;24.40;72.30;;;;;;4936603;29;20031;-69
2022/07/06 12:52:07;;;;;;;7.25;2.70;;;24.30;72.00;;;;;;4945640;28;20046;-69
2022/07/06 12:54:54;;;;;;;5.70;2.80;;;24.20;72.80;;;;;;4936513;29;20036;-70
2022/07/06 12:57:30;;;;;;;6.30;2.50;;;24.30;72.70;;;;;;4936214;29;20099;-70
2022/07/06 12:59:57;;;;;;;4.22;2.25;;;24.50;73.10;;;;;;4940322;29;20020;-70
2022/07/06 13:02:30;;;;;;;5.00;1.98;;;24.90;72.10;;;;;;4940066;29;20031;-70
2022/07/06 13:05:02;;;;;;;6.82;2.20;;;25.20;71.90;;;;;;4924842;29;20035;-71
2022/07/06 13:07:31;;;;;;;8.90;2.60;;;25.60;70.10;;;;;;4932049;29;20111;-70
2022/07/06 13:09:57;;;;;;;7.90;2.42;;;25.70;69.90;;;;;;4937312;29;20024;-70
2022/07/06 13:12:23;;;;;;;9.85;2.35;;;25.80;68.50;;;;;;4935976;29;20093;-69
2022/07/06 13:14:49;;;;;;;5.00;2.28;;;25.80;70.10;;;;;;4935763;29;20477;-71
2022/07/06 13:17:15;;;;;;;4.35;1.95;;;25.50;69.00;;;;;;4931913;29;20106;-69
2022/07/06 13:19:41;;;;;;;6.00;2.38;;;25.30;70.00;;;;;;4931386;28;20115;-69
2022/07/06 13:22:07;;;;;;;7.70;2.35;;;25.30;69.30;;;;;;4926916;28;20115;-71
2022/07/06 13:24:33;;;;;;;11.18;2.30;;;25.30;69.70;;;;;;4934174;29;20242;-72
2022/07/06 13:26:59;;;;;;;4.45;1.80;;;25.40;70.20;;;;;;4937771;29;20035;-71
2022/07/06 13:29:25;;;;;;;5.15;1.90;;;25.70;69.40;;;;;;4938343;28;20860;-72
2022/07/06 13:31:50;;;;;;;5.10;2.30;;;25.60;69.00;;;;;;4936671;29;20027;-71
2022/07/06 13:34:16;;;;;;;4.30;1.80;;;25.50;69.00;;;;;;4930058;29;20039;-72
2022/07/06 13:36:42;;;;;;;4.93;2.10;;;25.60;69.40;;;;;;4932534;29;20456;-71
2022/07/06 13:39:09;;;;;;;5.47;1.85;;;25.60;68.20;;;;;;4938770;29;20031;-72
2022/07/06 13:41:35;;;;;;;5.45;1.80;;;25.60;68.30;;;;;;4938297;29;20035;-73
2022/07/06 13:44:01;;;;;;;5.97;2.20;;;25.70;68.80;;;;;;4939712;29;20425;-74